Time;durP1;ratioP1;P1;durP2;ratioP2;P2;SDS_P1;SDS_P2;PMS_P1;PMS_P2;Temp;Humidity;BMP_temperature;BMP_pressure;BME280_temperature;BME280_humidity;BME280_pressure;Samples;Min_cycle;Max_cycle;Signal;HPM_P1;HPM_P2
2022/06/28 00:00:57;;;;;;;5.50;3.67;;;15.20;99.90;;;;;;5033087;28;20235;-77
2022/06/28 00:03:23;;;;;;;4.60;3.70;;;15.20;99.90;;;;;;5031531;28;20223;-77
2022/06/28 00:05:48;;;;;;;5.30;4.30;;;15.20;99.90;;;;;;5032417;28;20230;-77
2022/06/28 00:08:14;;;;;;;4.70;3.57;;;15.20;99.90;;;;;;5032758;28;20188;-77
2022/06/28 00:10:40;;;;;;;5.30;3.90;;;15.20;99.90;;;;;;5032789;28;20179;-77
2022/06/28 00:13:05;;;;;;;6.80;4.30;;;15.20;99.90;;;;;;5031088;28;20227;-77
2022/06/28 00:16:16;;;;;;;6.23;3.50;;;15.20;99.90;;;;;;5032756;28;20203;-77
2022/06/28 00:18:17;;;;;;;6.33;3.93;;;15.20;99.90;;;;;;5024998;28;20196;-77
2022/06/28 00:20:42;;;;;;;7.63;4.20;;;15.20;99.90;;;;;;5032607;28;20827;-77
2022/06/28 00:23:08;;;;;;;5.43;3.73;;;15.20;99.90;;;;;;5032313;28;20199;-77
2022/06/28 00:25:33;;;;;;;6.17;3.97;;;15.20;99.90;;;;;;5030993;28;20652;-78
2022/06/28 00:27:59;;;;;;;4.93;3.70;;;15.20;99.90;;;;;;5031881;28;20175;-77
2022/06/28 00:30:25;;;;;;;5.30;4.00;;;15.20;99.90;;;;;;5032528;28;20184;-77
2022/06/28 00:32:50;;;;;;;5.13;3.70;;;15.10;99.90;;;;;;5032129;28;20196;-77
2022/06/28 00:35:16;;;;;;;5.00;3.83;;;15.10;99.90;;;;;;5032200;28;20183;-77
2022/06/28 00:37:41;;;;;;;5.50;3.60;;;15.10;99.90;;;;;;5031858;28;20587;-77
2022/06/28 00:40:08;;;;;;;4.70;3.57;;;15.10;99.90;;;;;;5032373;28;20211;-77
2022/06/28 00:42:33;;;;;;;5.40;3.73;;;15.10;99.90;;;;;;5032077;28;20196;-77
2022/06/28 00:44:59;;;;;;;5.77;4.10;;;15.10;99.90;;;;;;5032448;28;20539;-77
2022/06/28 00:47:27;;;;;;;4.70;3.53;;;15.10;99.90;;;;;;5031998;28;20173;-77
2022/06/28 00:49:55;;;;;;;5.70;3.97;;;15.10;99.90;;;;;;5032217;28;20183;-77
2022/06/28 00:52:21;;;;;;;5.80;3.73;;;15.10;99.90;;;;;;5032144;28;20526;-77
2022/06/28 00:54:46;;;;;;;6.40;4.40;;;15.00;99.90;;;;;;5032186;28;20845;-77
2022/06/28 00:57:12;;;;;;;5.23;3.53;;;15.00;99.90;;;;;;5030994;28;20234;-77
2022/06/28 00:59:38;;;;;;;4.77;3.37;;;15.10;99.90;;;;;;5033113;28;20569;-77
2022/06/28 01:02:03;;;;;;;5.70;3.30;;;15.00;99.90;;;;;;5033337;28;20196;-77
2022/06/28 01:04:29;;;;;;;5.90;3.90;;;15.00;99.90;;;;;;5033698;28;20176;-77
2022/06/28 01:06:55;;;;;;;6.67;4.13;;;15.00;99.90;;;;;;5033080;28;20181;-77
2022/06/28 01:09:21;;;;;;;4.43;3.50;;;15.00;99.90;;;;;;5033550;28;20422;-77
2022/06/28 01:11:47;;;;;;;5.70;3.60;;;15.00;99.90;;;;;;5031378;28;20212;-77
2022/06/28 01:14:13;;;;;;;8.03;3.27;;;15.00;99.90;;;;;;5078379;22;20437;-84
2022/06/28 01:16:39;;;;;;;4.83;3.30;;;14.90;99.90;;;;;;5008318;28;20205;-84
2022/06/28 01:19:06;;;;;;;6.23;3.17;;;14.90;99.90;;;;;;5011121;28;20459;-84
2022/06/28 01:21:34;;;;;;;5.57;3.57;;;14.90;99.90;;;;;;5016369;28;20213;-84
2022/06/28 01:23:59;;;;;;;6.33;3.33;;;15.00;99.90;;;;;;5020080;28;20420;-84
2022/06/28 01:26:25;;;;;;;6.90;4.00;;;14.90;99.90;;;;;;5002151;28;20413;-84
2022/06/28 01:28:52;;;;;;;4.40;3.30;;;14.80;99.90;;;;;;5019321;28;20527;-84
2022/06/28 01:31:20;;;;;;;4.77;3.07;;;14.90;99.90;;;;;;5003787;28;20188;-84
2022/06/28 01:33:46;;;;;;;8.50;4.07;;;14.80;99.90;;;;;;5018644;28;20425;-85
2022/06/28 01:36:12;;;;;;;6.20;3.20;;;14.90;99.90;;;;;;5001618;28;20449;-85
2022/06/28 01:38:41;;;;;;;7.23;3.13;;;14.80;99.90;;;;;;5001324;28;20461;-84
2022/06/28 01:41:32;;;;;;;4.83;3.37;;;14.80;99.90;;;;;;5002547;28;20416;-84
2022/06/28 01:43:55;;;;;;;5.13;3.87;;;14.80;99.90;;;;;;5002150;28;20444;-84
2022/06/28 01:46:21;;;;;;;4.40;3.13;;;14.80;99.90;;;;;;5002222;28;20440;-83
2022/06/28 01:48:46;;;;;;;4.63;3.30;;;14.80;99.90;;;;;;5001273;28;20490;-85
2022/06/28 01:51:12;;;;;;;5.17;3.20;;;14.70;99.90;;;;;;5000933;28;20186;-85
2022/06/28 01:53:40;;;;;;;3.97;2.73;;;14.70;99.90;;;;;;5000637;28;20649;-84
2022/06/28 01:56:06;;;;;;;7.47;3.67;;;14.70;99.90;;;;;;5000080;28;20201;-84
2022/06/28 01:58:31;;;;;;;6.10;3.70;;;14.60;99.90;;;;;;5000357;28;20505;-84
2022/06/28 02:00:57;;;;;;;4.37;3.30;;;14.60;99.90;;;;;;5000608;28;20207;-85
2022/06/28 02:03:23;;;;;;;5.10;3.30;;;14.60;99.90;;;;;;4999654;28;20249;-84
2022/06/28 02:05:49;;;;;;;5.67;5.07;;;14.60;99.90;;;;;;5000971;28;20848;-84
2022/06/28 02:08:14;;;;;;;4.80;3.37;;;14.60;99.90;;;;;;4999346;28;20633;-86
2022/06/28 02:10:40;;;;;;;6.10;3.80;;;14.60;99.90;;;;;;4999304;28;20232;-84
2022/06/28 02:13:06;;;;;;;5.37;3.57;;;14.50;99.90;;;;;;5000562;28;20188;-84
2022/06/28 02:15:31;;;;;;;6.30;4.10;;;14.50;99.90;;;;;;5000315;28;20213;-83
2022/06/28 02:17:59;;;;;;;5.60;3.80;;;14.60;99.90;;;;;;5000029;28;20548;-85
2022/06/28 02:20:24;;;;;;;6.50;2.97;;;14.60;99.90;;;;;;4998455;28;20237;-84
2022/06/28 02:22:50;;;;;;;5.30;3.47;;;14.60;99.90;;;;;;4998418;28;20432;-84
2022/06/28 02:25:17;;;;;;;6.33;3.70;;;14.60;99.90;;;;;;4998712;28;20198;-83
2022/06/28 02:27:43;;;;;;;5.63;3.37;;;14.60;99.90;;;;;;4997113;28;20188;-84
2022/06/28 02:30:10;;;;;;;3.90;3.10;;;14.60;99.90;;;;;;4997563;28;20425;-83
2022/06/28 02:32:36;;;;;;;5.03;3.53;;;14.60;99.90;;;;;;4997544;28;20428;-84
2022/06/28 02:40:31;;;;;;;4.87;3.47;;;14.60;99.90;;;;;;4999020;28;20819;-83
2022/06/28 02:42:59;;;;;;;5.50;3.73;;;14.60;99.90;;;;;;4998257;28;20520;-85
2022/06/28 02:45:27;;;;;;;7.10;3.70;;;14.60;99.90;;;;;;4998977;28;20440;-83
2022/06/28 02:47:53;;;;;;;4.30;3.30;;;14.50;99.90;;;;;;4996259;28;20433;-84
2022/06/28 02:50:19;;;;;;;5.20;3.33;;;14.60;99.90;;;;;;4995286;28;20421;-83
2022/06/28 02:52:44;;;;;;;5.20;3.63;;;14.50;99.90;;;;;;4996570;28;20216;-84
2022/06/28 02:55:11;;;;;;;6.00;4.00;;;14.60;99.90;;;;;;5012971;28;20444;-84
2022/06/28 02:57:37;;;;;;;5.80;3.40;;;14.50;99.90;;;;;;4996095;28;20327;-84
2022/06/28 03:00:10;;;;;;;5.23;3.43;;;14.50;99.90;;;;;;4998166;28;20460;-84
2022/06/28 03:02:36;;;;;;;5.50;4.13;;;14.50;99.90;;;;;;4997994;28;20413;-83
2022/06/28 03:05:08;;;;;;;10.13;4.53;;;14.50;99.90;;;;;;4997451;28;20524;-85
2022/06/28 03:07:34;;;;;;;5.20;4.13;;;14.50;99.90;;;;;;4995274;28;20417;-85
2022/06/28 03:10:00;;;;;;;7.70;4.30;;;14.50;99.90;;;;;;4997390;28;20424;-84
2022/06/28 03:12:26;;;;;;;5.77;3.70;;;14.40;99.90;;;;;;4997590;28;20182;-83
2022/06/28 03:14:51;;;;;;;7.63;4.47;;;14.50;99.90;;;;;;4998104;28;20214;-83
2022/06/28 03:17:17;;;;;;;7.10;4.80;;;14.50;99.90;;;;;;4996942;28;20193;-85
2022/06/28 03:19:43;;;;;;;6.07;4.03;;;14.50;99.90;;;;;;4996699;28;20248;-84
2022/06/28 03:22:08;;;;;;;7.47;4.00;;;14.50;99.90;;;;;;4995283;28;20190;-85
2022/06/28 03:24:34;;;;;;;11.10;5.60;;;14.40;99.90;;;;;;4995026;28;20224;-84
2022/06/28 03:26:59;;;;;;;6.40;5.23;;;14.40;99.90;;;;;;4996888;28;20174;-84
2022/06/28 03:29:25;;;;;;;7.27;5.10;;;14.40;99.90;;;;;;4995494;28;20188;-84
2022/06/28 03:31:53;;;;;;;7.97;5.73;;;14.40;99.90;;;;;;4996694;28;20261;-84
2022/06/28 03:34:19;;;;;;;8.97;5.43;;;14.40;99.90;;;;;;4996254;28;20198;-84
2022/06/28 03:36:46;;;;;;;8.43;4.83;;;14.40;99.90;;;;;;4995384;28;20413;-84
2022/06/28 03:39:12;;;;;;;8.47;5.63;;;14.40;99.90;;;;;;4994070;28;20978;-84
2022/06/28 03:41:38;;;;;;;11.50;6.13;;;14.40;99.90;;;;;;4996506;28;20444;-84
2022/06/28 03:44:03;;;;;;;8.27;6.20;;;14.40;99.90;;;;;;4996196;28;20409;-84
2022/06/28 03:46:29;;;;;;;8.73;5.73;;;14.40;99.90;;;;;;4993699;28;20695;-84
2022/06/28 03:48:55;;;;;;;8.23;5.37;;;14.30;99.90;;;;;;4994854;28;20242;-84
2022/06/28 03:51:20;;;;;;;9.00;5.57;;;14.40;99.90;;;;;;4994788;28;20220;-83
2022/06/28 03:53:46;;;;;;;9.47;5.23;;;14.40;99.90;;;;;;4992404;28;20611;-84
2022/06/28 03:56:12;;;;;;;6.30;4.93;;;14.40;99.90;;;;;;4991951;28;20660;-84
2022/06/28 03:58:37;;;;;;;7.10;5.20;;;14.40;99.90;;;;;;4993102;28;20601;-83
2022/06/28 04:01:03;;;;;;;7.70;5.80;;;14.40;99.90;;;;;;4993504;28;20260;-84
2022/06/28 04:03:29;;;;;;;7.73;4.63;;;14.40;99.90;;;;;;4992045;28;20216;-84
2022/06/28 04:05:55;;;;;;;8.70;5.70;;;14.40;99.90;;;;;;4991996;28;20225;-84
2022/06/28 04:08:21;;;;;;;5.43;4.70;;;14.40;99.90;;;;;;4992929;28;20445;-84
2022/06/28 04:10:47;;;;;;;10.70;5.17;;;14.50;99.90;;;;;;4993244;28;20192;-84
2022/06/28 04:13:12;;;;;;;7.07;5.20;;;14.50;99.90;;;;;;4991774;28;20504;-84
2022/06/28 04:15:38;;;;;;;8.10;5.40;;;14.50;99.90;;;;;;4992842;28;20217;-84
2022/06/28 04:18:05;;;;;;;8.60;4.40;;;14.50;99.90;;;;;;4992818;28;20181;-84
2022/06/28 04:20:31;;;;;;;6.23;4.00;;;14.60;99.90;;;;;;4991838;28;20680;-83
2022/06/28 04:22:57;;;;;;;5.47;4.40;;;14.60;99.90;;;;;;4992105;28;20417;-83
2022/06/28 04:25:22;;;;;;;5.37;4.23;;;14.60;99.90;;;;;;4991642;28;20971;-84
2022/06/28 04:27:48;;;;;;;7.47;4.20;;;14.60;99.90;;;;;;4991690;28;20196;-84
2022/06/28 04:30:14;;;;;;;9.20;4.50;;;14.60;99.90;;;;;;4991343;28;20201;-83
2022/06/28 04:32:40;;;;;;;5.80;4.13;;;14.70;99.90;;;;;;4991280;28;20186;-84
2022/06/28 04:35:07;;;;;;;5.30;4.40;;;14.70;99.90;;;;;;4992695;28;20445;-83
2022/06/28 04:37:33;;;;;;;5.00;3.83;;;14.70;99.90;;;;;;4991311;28;20428;-84
2022/06/28 04:39:58;;;;;;;5.63;4.33;;;14.80;99.90;;;;;;4991722;28;20883;-83
2022/06/28 04:42:24;;;;;;;4.70;3.27;;;14.80;99.90;;;;;;4991618;28;20181;-83
2022/06/28 04:44:49;;;;;;;5.03;3.53;;;14.80;99.90;;;;;;4992687;28;20779;-83
2022/06/28 04:47:15;;;;;;;4.87;3.90;;;14.90;99.90;;;;;;4992699;28;20236;-83
2022/06/28 04:49:41;;;;;;;5.97;3.73;;;14.90;99.90;;;;;;5010311;28;20185;-84
2022/06/28 04:52:07;;;;;;;11.93;4.00;;;15.00;99.90;;;;;;4996975;28;20173;-83
2022/06/28 04:54:32;;;;;;;5.37;3.50;;;15.00;99.90;;;;;;4995539;28;20229;-83
2022/06/28 04:56:58;;;;;;;4.80;3.30;;;15.00;99.90;;;;;;4996181;28;20425;-83
2022/06/28 04:59:24;;;;;;;5.53;3.40;;;15.10;99.90;;;;;;4996845;28;20258;-83
2022/06/28 05:01:49;;;;;;;6.03;3.60;;;15.20;99.90;;;;;;4995211;28;20280;-83
2022/06/28 05:04:15;;;;;;;5.70;3.63;;;15.20;99.90;;;;;;4996540;28;20198;-83
2022/06/28 05:06:41;;;;;;;12.43;4.10;;;15.30;99.90;;;;;;4994803;28;20462;-82
2022/06/28 05:09:06;;;;;;;7.10;4.13;;;15.30;99.90;;;;;;4996470;28;20193;-83
2022/06/28 05:11:32;;;;;;;4.50;3.30;;;15.40;99.90;;;;;;4995213;28;20435;-83
2022/06/28 05:13:59;;;;;;;4.50;3.43;;;15.40;99.90;;;;;;4996540;28;20181;-83
2022/06/28 05:16:25;;;;;;;10.37;4.10;;;15.50;99.90;;;;;;4995708;28;20200;-83
2022/06/28 05:18:50;;;;;;;6.17;3.80;;;15.60;99.90;;;;;;4994687;28;20799;-83
2022/06/28 05:21:16;;;;;;;5.27;3.63;;;15.60;99.90;;;;;;4996012;28;20780;-83
2022/06/28 05:23:42;;;;;;;6.47;3.80;;;15.70;99.90;;;;;;5010801;28;20271;-82
2022/06/28 05:26:08;;;;;;;7.57;3.87;;;15.70;99.90;;;;;;4995929;28;20527;-83
2022/06/28 05:28:34;;;;;;;5.97;4.37;;;15.80;99.90;;;;;;4994646;28;20424;-82
2022/06/28 05:30:59;;;;;;;6.93;4.20;;;15.80;99.90;;;;;;4994966;28;20244;-83
2022/06/28 05:33:25;;;;;;;6.30;3.80;;;15.90;99.90;;;;;;4995942;28;20193;-83
2022/06/28 05:35:51;;;;;;;6.10;3.57;;;16.00;99.90;;;;;;4994121;28;20669;-83
2022/06/28 05:38:16;;;;;;;6.60;3.53;;;16.00;99.90;;;;;;4995571;28;20186;-83
2022/06/28 05:40:42;;;;;;;10.60;3.63;;;16.10;99.90;;;;;;4994539;28;20307;-83
2022/06/28 05:43:08;;;;;;;6.30;3.67;;;16.20;99.90;;;;;;4994083;28;20186;-84
2022/06/28 05:45:33;;;;;;;6.03;3.00;;;16.20;99.90;;;;;;4993957;28;20673;-83
2022/06/28 05:47:59;;;;;;;5.50;3.00;;;16.30;99.90;;;;;;4995598;28;20452;-83
2022/06/28 05:50:25;;;;;;;6.80;3.20;;;16.40;99.90;;;;;;4994138;28;20276;-83
2022/06/28 05:52:51;;;;;;;5.97;3.53;;;16.40;99.90;;;;;;4994266;28;20189;-83
2022/06/28 05:55:17;;;;;;;3.90;2.80;;;16.50;99.90;;;;;;5010391;28;20216;-84
2022/06/28 05:57:43;;;;;;;6.60;3.40;;;16.50;99.90;;;;;;4995128;28;20417;-83
2022/06/28 06:00:09;;;;;;;4.13;2.87;;;16.50;99.90;;;;;;4994015;28;20812;-83
2022/06/28 06:02:35;;;;;;;5.03;3.43;;;16.60;99.90;;;;;;4994014;28;20920;-83
2022/06/28 06:05:02;;;;;;;3.93;2.80;;;16.70;99.90;;;;;;4993802;28;20444;-84
2022/06/28 06:07:29;;;;;;;6.47;3.57;;;16.80;99.90;;;;;;4994771;28;20184;-83
2022/06/28 06:09:56;;;;;;;5.53;2.83;;;16.90;99.90;;;;;;4995195;28;20500;-84
2022/06/28 06:12:22;;;;;;;7.13;3.30;;;17.00;99.90;;;;;;4993849;28;20515;-83
2022/06/28 06:14:47;;;;;;;5.20;2.60;;;17.10;99.90;;;;;;4993790;28;20555;-83
2022/06/28 06:17:13;;;;;;;3.90;2.23;;;17.20;99.90;;;;;;4994880;28;20516;-83
2022/06/28 06:19:39;;;;;;;5.93;2.57;;;17.30;99.90;;;;;;4993693;28;20213;-83
2022/06/28 06:22:04;;;;;;;3.70;2.67;;;17.30;99.90;;;;;;4995274;28;20657;-83
2022/06/28 06:24:30;;;;;;;5.10;3.30;;;17.30;99.90;;;;;;4994988;28;20735;-84
2022/06/28 06:26:55;;;;;;;8.20;3.33;;;17.40;99.90;;;;;;4993422;28;20185;-84
2022/06/28 06:29:21;;;;;;;4.63;2.90;;;17.50;99.90;;;;;;4995652;28;20613;-83
2022/06/28 06:31:46;;;;;;;6.50;3.30;;;17.50;99.90;;;;;;4995327;28;20240;-83
2022/06/28 06:34:13;;;;;;;4.50;3.10;;;17.60;99.90;;;;;;4995537;28;20261;-83
2022/06/28 06:36:39;;;;;;;5.60;2.83;;;17.70;99.90;;;;;;4993582;28;20188;-84
2022/06/28 06:39:05;;;;;;;4.77;3.37;;;17.80;99.90;;;;;;4995058;28;20456;-84
2022/06/28 06:41:30;;;;;;;4.60;2.90;;;17.80;99.90;;;;;;4995698;28;20791;-83
2022/06/28 06:43:56;;;;;;;9.67;3.00;;;17.90;99.90;;;;;;4998039;28;20265;-85
2022/06/28 06:46:22;;;;;;;5.70;3.03;;;18.00;99.90;;;;;;5001511;28;20184;-85
2022/06/28 06:48:47;;;;;;;4.73;2.73;;;18.00;99.90;;;;;;5017772;28;20505;-85
2022/06/28 06:51:13;;;;;;;3.77;2.47;;;18.10;99.90;;;;;;5017398;28;20240;-85
2022/06/28 06:53:38;;;;;;;3.80;2.20;;;18.10;99.90;;;;;;5001147;28;20190;-85
2022/06/28 06:56:04;;;;;;;4.47;3.07;;;18.20;99.90;;;;;;5000722;28;20248;-85
2022/06/28 06:58:30;;;;;;;6.30;2.90;;;18.30;99.90;;;;;;5001048;28;20184;-84
2022/06/28 07:00:57;;;;;;;4.00;1.90;;;18.40;99.90;;;;;;5000433;28;20264;-85
2022/06/28 07:03:23;;;;;;;4.63;2.93;;;18.50;99.90;;;;;;4999325;28;20181;-84
2022/06/28 07:05:48;;;;;;;5.40;2.40;;;18.60;99.90;;;;;;5000891;28;20432;-85
2022/06/28 07:08:14;;;;;;;4.97;2.83;;;18.60;99.90;;;;;;5000773;28;20205;-85
2022/06/28 07:10:40;;;;;;;4.47;2.93;;;18.70;99.90;;;;;;4999533;28;20197;-85
2022/06/28 07:13:05;;;;;;;4.33;2.17;;;18.80;99.90;;;;;;4998763;28;20181;-84
2022/06/28 07:15:31;;;;;;;6.10;2.70;;;18.80;99.90;;;;;;4998354;28;20279;-85
2022/06/28 07:17:56;;;;;;;3.90;2.17;;;19.00;99.90;;;;;;5028196;23;20647;-77
2022/06/28 07:20:22;;;;;;;5.10;2.30;;;19.00;99.90;;;;;;5030956;28;20572;-77
2022/06/28 07:22:48;;;;;;;3.30;1.87;;;19.10;99.90;;;;;;5033333;28;20172;-77
2022/06/28 07:25:13;;;;;;;5.47;2.10;;;19.20;99.90;;;;;;5033248;28;20172;-77
2022/06/28 07:27:39;;;;;;;4.50;2.50;;;19.10;99.90;;;;;;5032308;28;20192;-78
2022/06/28 07:30:05;;;;;;;3.90;1.80;;;19.20;99.90;;;;;;5032633;28;20200;-77
2022/06/28 07:32:31;;;;;;;3.90;1.80;;;19.30;99.90;;;;;;5015199;28;20776;-78
2022/06/28 07:34:57;;;;;;;3.70;1.80;;;19.40;99.90;;;;;;5032529;28;20930;-77
2022/06/28 07:37:23;;;;;;;5.90;2.20;;;19.40;99.90;;;;;;5032108;28;20438;-77
2022/06/28 07:39:48;;;;;;;5.77;1.90;;;19.40;99.90;;;;;;5032682;28;20266;-78
2022/06/28 07:42:14;;;;;;;3.50;2.43;;;19.50;99.90;;;;;;5032506;28;20298;-77
2022/06/28 07:44:39;;;;;;;3.73;2.00;;;19.50;99.90;;;;;;5032495;28;20187;-78
2022/06/28 07:47:05;;;;;;;2.80;1.87;;;19.70;99.90;;;;;;5031952;28;20584;-77
2022/06/28 07:54:59;;;;;;;4.17;1.77;;;19.80;99.90;;;;;;5032312;28;20413;-77
2022/06/28 07:57:25;;;;;;;3.90;1.43;;;19.90;99.90;;;;;;5031971;28;20430;-77
2022/06/28 07:59:50;;;;;;;4.00;1.50;;;19.90;99.90;;;;;;5000856;28;20300;-76
2022/06/28 08:02:16;;;;;;;4.43;1.50;;;20.10;99.90;;;;;;5007475;28;20722;-76
2022/06/28 08:04:41;;;;;;;3.77;1.90;;;20.20;99.90;;;;;;5011900;28;20636;-76
2022/06/28 08:07:07;;;;;;;6.10;1.70;;;20.40;99.90;;;;;;5011677;28;20200;-76
2022/06/28 08:09:32;;;;;;;3.30;1.20;;;20.60;99.90;;;;;;5012118;28;20706;-76
2022/06/28 08:11:58;;;;;;;2.90;1.47;;;20.70;99.90;;;;;;5009339;28;20185;-77
2022/06/28 08:14:24;;;;;;;3.63;1.30;;;20.90;99.90;;;;;;4994310;28;20688;-77
2022/06/28 08:16:50;;;;;;;3.63;1.50;;;;;;;;;;4993298;28;20178;-77
2022/06/28 08:19:15;;;;;;;11.63;1.80;;;22.90;99.90;;;;;;4993854;28;20220;-77
2022/06/28 08:21:42;;;;;;;3.00;1.40;;;24.10;99.90;;;;;;4994316;28;20413;-77
2022/06/28 08:24:07;;;;;;;3.43;1.97;;;25.00;99.90;;;;;;4993669;28;20205;-78
2022/06/28 08:26:33;;;;;;;3.83;1.70;;;26.00;99.90;;;;;;4993739;28;20965;-77
2022/06/28 08:28:59;;;;;;;4.13;1.47;;;26.50;99.90;;;;;;4976863;28;20201;-78
2022/06/28 08:31:25;;;;;;;2.90;1.60;;;27.10;99.90;;;;;;4994714;28;20412;-78
2022/06/28 08:33:50;;;;;;;4.20;1.70;;;28.10;99.90;;;;;;4994664;28;20206;-78
2022/06/28 08:36:16;;;;;;;5.10;1.77;;;29.10;99.90;;;;;;4993996;28;20202;-79
2022/06/28 08:38:41;;;;;;;4.37;2.10;;;29.80;99.90;;;;;;4976442;28;20684;-78
2022/06/28 08:41:08;;;;;;;4.53;1.87;;;30.50;98.30;;;;;;4994105;28;20237;-78
2022/06/28 08:43:33;;;;;;;5.80;2.07;;;31.20;93.40;;;;;;4995622;28;20177;-79
2022/06/28 08:46:01;;;;;;;4.33;2.37;;;32.00;92.00;;;;;;4996308;28;21027;-79
2022/06/28 08:48:43;;;;;;;3.20;1.50;;;32.60;82.90;;;;;;4996481;28;20193;-79
2022/06/28 08:51:10;;;;;;;7.70;2.07;;;33.10;80.70;;;;;;4994260;28;20492;-78
2022/06/28 08:53:38;;;;;;;4.23;1.80;;;33.70;75.60;;;;;;4994072;28;20896;-78
2022/06/28 08:56:05;;;;;;;3.23;1.40;;;34.30;69.60;;;;;;4993886;28;20800;-78
2022/06/28 08:58:31;;;;;;;4.13;2.17;;;34.70;63.90;;;;;;4993945;28;20460;-78
2022/06/28 09:00:58;;;;;;;2.90;1.50;;;35.10;58.70;;;;;;4994448;28;20805;-78
2022/06/28 09:03:24;;;;;;;5.53;1.70;;;35.40;57.30;;;;;;4994600;28;20486;-78
2022/06/28 09:05:50;;;;;;;3.43;2.20;;;35.40;55.10;;;;;;4993900;28;20495;-78
2022/06/28 09:08:15;;;;;;;4.00;1.73;;;36.00;54.90;;;;;;4994597;28;20475;-78
2022/06/28 09:10:43;;;;;;;5.53;2.03;;;36.10;52.50;;;;;;4994289;28;20181;-78
2022/06/28 09:13:11;;;;;;;4.30;1.63;;;36.20;54.10;;;;;;4994635;28;20178;-79
2022/06/28 09:16:02;;;;;;;3.77;1.60;;;36.20;50.90;;;;;;4993423;28;20763;-79
2022/06/28 09:18:36;;;;;;;2.83;1.20;;;36.60;46.50;;;;;;4976142;28;20475;-78
2022/06/28 09:21:15;;;;;;;4.00;1.67;;;37.10;49.30;;;;;;4993836;28;20547;-79
2022/06/28 09:23:43;;;;;;;5.23;1.93;;;37.60;45.50;;;;;;4993984;28;20959;-78
2022/06/28 09:26:18;;;;;;;3.80;1.53;;;38.00;47.30;;;;;;4993344;28;20500;-79
2022/06/28 09:28:46;;;;;;;4.53;1.67;;;38.30;46.00;;;;;;4994388;28;20428;-79
2022/06/28 09:31:16;;;;;;;2.93;1.47;;;38.60;44.20;;;;;;4994074;28;20420;-78
2022/06/28 09:33:44;;;;;;;3.80;1.50;;;38.70;44.10;;;;;;4993778;28;20409;-79
2022/06/28 09:36:15;;;;;;;3.13;2.17;;;38.70;43.70;;;;;;4996287;28;20405;-79
2022/06/28 09:38:41;;;;;;;3.60;1.57;;;39.20;45.70;;;;;;4996914;28;20432;-78
2022/06/28 09:41:28;;;;;;;3.67;1.60;;;39.70;43.00;;;;;;4996815;28;21016;-80
2022/06/28 09:43:59;;;;;;;4.53;1.83;;;40.00;39.80;;;;;;4995846;28;20421;-79
2022/06/28 09:46:27;;;;;;;3.40;1.70;;;39.60;40.10;;;;;;4996138;28;20417;-78
2022/06/28 09:48:56;;;;;;;4.67;1.70;;;39.90;40.10;;;;;;4996525;28;20428;-78
2022/06/28 09:51:23;;;;;;;3.63;1.97;;;40.00;39.70;;;;;;4996401;28;20427;-78
2022/06/28 09:53:54;;;;;;;4.37;2.00;;;40.00;38.70;;;;;;4996124;28;20832;-78
2022/06/28 09:56:23;;;;;;;3.07;1.60;;;39.60;37.60;;;;;;4996640;28;20409;-79
2022/06/28 09:58:50;;;;;;;4.43;1.90;;;39.70;38.70;;;;;;4996277;28;20425;-78
2022/06/28 10:01:16;;;;;;;2.70;1.60;;;40.00;40.40;;;;;;4995697;28;20979;-80
2022/06/28 10:03:42;;;;;;;3.60;1.93;;;40.50;39.20;;;;;;4995465;28;20419;-79
2022/06/28 10:06:08;;;;;;;5.30;1.70;;;40.80;39.40;;;;;;4978187;28;20965;-79
2022/06/28 10:08:34;;;;;;;3.40;1.90;;;41.00;38.50;;;;;;4994643;28;20447;-79
2022/06/28 10:11:01;;;;;;;4.47;1.90;;;40.90;39.10;;;;;;5006690;28;20191;-79
2022/06/28 10:16:18;;;;;;;4.03;2.07;;;41.90;38.70;;;;;;5015074;28;20477;-80
2022/06/28 10:18:45;;;;;;;4.07;2.53;;;42.30;36.90;;;;;;5019571;28;20458;-80
2022/06/28 10:21:11;;;;;;;4.00;2.30;;;42.40;36.20;;;;;;5019996;28;21009;-80
2022/06/28 10:23:39;;;;;;;3.40;1.63;;;42.60;36.50;;;;;;5018331;28;20442;-80
2022/06/28 10:26:26;;;;;;;7.43;2.00;;;43.10;36.20;;;;;;5022504;28;20187;-80
2022/06/28 10:29:02;;;;;;;4.03;2.30;;;43.00;35.30;;;;;;5026250;28;20721;-80
2022/06/28 10:31:29;;;;;;;3.90;1.83;;;42.30;34.10;;;;;;5036618;28;20198;-80
2022/06/28 10:33:57;;;;;;;3.90;1.90;;;42.50;34.80;;;;;;5039511;28;20171;-80
2022/06/28 10:36:25;;;;;;;3.73;1.77;;;42.70;34.90;;;;;;5020876;28;20194;-80
2022/06/28 10:39:08;;;;;;;4.87;1.80;;;42.40;34.30;;;;;;5038777;28;20571;-80
2022/06/28 10:41:52;;;;;;;4.70;2.17;;;41.60;35.80;;;;;;5038994;28;20186;-80
2022/06/28 10:44:27;;;;;;;3.80;1.67;;;40.20;35.10;;;;;;5039221;28;20417;-80
2022/06/28 10:47:05;;;;;;;5.73;2.43;;;39.10;37.10;;;;;;5036936;28;20410;-80
2022/06/28 10:49:46;;;;;;;3.10;1.80;;;38.20;37.70;;;;;;5038098;28;20422;-79
2022/06/28 10:52:16;;;;;;;3.50;2.00;;;37.10;38.80;;;;;;5037985;28;20411;-80
2022/06/28 10:55:31;;;;;;;3.73;2.10;;;36.00;39.30;;;;;;5037716;28;20418;-80
2022/06/28 10:58:08;;;;;;;5.80;2.17;;;34.60;39.60;;;;;;5002191;28;20820;-79
2022/06/28 11:00:34;;;;;;;5.13;2.47;;;34.00;42.50;;;;;;5037278;28;20465;-79
2022/06/28 11:03:02;;;;;;;5.27;2.17;;;34.20;40.30;;;;;;5037310;28;20414;-79
2022/06/28 11:05:54;;;;;;;4.93;2.20;;;34.80;41.70;;;;;;5021411;28;20455;-78
2022/06/28 11:08:48;;;;;;;4.23;2.17;;;35.00;42.30;;;;;;5014727;28;20955;-78
2022/06/28 11:11:13;;;;;;;3.87;2.33;;;34.30;41.20;;;;;;5014209;28;20421;-77
2022/06/28 11:13:39;;;;;;;3.97;1.70;;;33.20;39.20;;;;;;5014184;28;20409;-78
2022/06/28 11:16:04;;;;;;;3.23;1.80;;;33.20;42.50;;;;;;5014269;28;20243;-77
2022/06/28 11:18:30;;;;;;;3.00;1.97;;;33.80;42.90;;;;;;5014246;28;20217;-78
2022/06/28 11:20:56;;;;;;;4.10;2.53;;;33.20;43.40;;;;;;5014896;28;20239;-78
2022/06/28 11:23:23;;;;;;;5.97;2.80;;;32.50;43.80;;;;;;5014209;28;20169;-78
2022/06/28 11:28:52;;;;;;;5.63;2.43;;;31.30;43.90;;;;;;5013879;28;20481;-77
2022/06/28 11:31:18;;;;;;;4.87;2.20;;;31.20;43.50;;;;;;5014202;28;20444;-77
2022/06/28 11:33:44;;;;;;;5.67;2.77;;;31.10;44.50;;;;;;5007819;28;20838;-77
2022/06/28 11:36:26;;;;;;;3.40;1.90;;;30.80;44.00;;;;;;5007524;28;20632;-79
2022/06/28 11:38:51;;;;;;;5.00;2.67;;;30.20;45.40;;;;;;5022734;28;20435;-79
2022/06/28 11:41:28;;;;;;;4.07;1.97;;;29.80;46.90;;;;;;5022577;28;21243;-79
2022/06/28 11:43:58;;;;;;;3.47;1.80;;;29.60;45.10;;;;;;5015451;28;20222;-79
2022/06/28 11:46:25;;;;;;;5.33;1.90;;;29.40;45.90;;;;;;5013434;28;20972;-79
2022/06/28 11:48:51;;;;;;;2.60;1.50;;;29.20;45.60;;;;;;5013588;28;20485;-79
2022/06/28 11:51:29;;;;;;;3.73;1.90;;;28.80;45.00;;;;;;4996192;28;20792;-79
2022/06/28 11:53:55;;;;;;;3.20;1.70;;;28.40;45.90;;;;;;5013963;28;20173;-79
2022/06/28 11:56:20;;;;;;;4.83;1.90;;;28.10;46.40;;;;;;5013386;28;20411;-78
2022/06/28 11:58:46;;;;;;;3.20;1.63;;;27.90;47.00;;;;;;5013383;28;20189;-78
2022/06/28 12:01:19;;;;;;;3.50;1.23;;;27.80;46.50;;;;;;4996083;28;20252;-79
2022/06/28 12:03:44;;;;;;;2.87;1.50;;;27.90;47.70;;;;;;5013938;28;20184;-78
2022/06/28 12:06:20;;;;;;;4.83;1.60;;;28.00;46.40;;;;;;4995800;28;20424;-78
2022/06/28 12:08:51;;;;;;;2.93;1.50;;;28.10;49.00;;;;;;5013537;28;20196;-79
2022/06/28 12:11:51;;;;;;;4.10;1.50;;;28.10;48.50;;;;;;5013332;28;20887;-79
2022/06/28 12:14:18;;;;;;;3.30;1.40;;;28.10;44.90;;;;;;4995536;28;20420;-78
2022/06/28 12:16:58;;;;;;;2.30;1.10;;;28.10;46.90;;;;;;4995026;28;20428;-79
2022/06/28 12:19:32;;;;;;;2.83;1.30;;;28.10;48.40;;;;;;5013594;28;20468;-79
2022/06/28 12:22:03;;;;;;;2.80;1.30;;;28.00;47.20;;;;;;5012861;28;20885;-79
2022/06/28 12:24:55;;;;;;;3.30;1.20;;;27.90;47.30;;;;;;5012996;28;20412;-79
2022/06/28 12:27:27;;;;;;;3.37;1.40;;;28.00;46.50;;;;;;5012225;28;20468;-79
2022/06/28 12:29:54;;;;;;;2.73;1.43;;;28.10;48.50;;;;;;5012979;28;20780;-79
2022/06/28 12:32:20;;;;;;;3.03;1.43;;;28.10;47.40;;;;;;5012926;28;20860;-79
2022/06/28 12:34:46;;;;;;;3.53;1.30;;;28.10;46.90;;;;;;5013352;28;20416;-78
2022/06/28 12:37:13;;;;;;;2.63;1.00;;;28.30;46.50;;;;;;5012514;28;20903;-79
2022/06/28 12:39:39;;;;;;;4.37;1.63;;;28.30;45.70;;;;;;4994873;28;20231;-79
2022/06/28 12:42:05;;;;;;;3.20;1.40;;;28.30;46.10;;;;;;4994830;28;20430;-79
2022/06/28 12:44:32;;;;;;;2.20;1.30;;;28.30;44.60;;;;;;5012707;28;20416;-79
2022/06/28 12:46:58;;;;;;;4.13;1.80;;;28.30;44.70;;;;;;5012316;28;20416;-79
2022/06/28 12:49:24;;;;;;;3.10;1.50;;;28.50;46.00;;;;;;5012884;28;20783;-79
2022/06/28 12:51:50;;;;;;;4.30;1.77;;;28.60;45.50;;;;;;5012790;28;20423;-79
2022/06/28 12:54:16;;;;;;;4.57;1.40;;;28.50;45.50;;;;;;5012285;28;20439;-79
2022/06/28 12:56:42;;;;;;;2.80;1.10;;;28.50;46.00;;;;;;5012165;28;20515;-79
2022/06/28 12:59:08;;;;;;;5.23;1.60;;;28.40;45.60;;;;;;5012464;28;20428;-79
2022/06/28 13:01:33;;;;;;;3.73;1.83;;;28.60;47.00;;;;;;5012659;28;20189;-79
2022/06/28 13:03:59;;;;;;;2.80;1.23;;;28.60;48.30;;;;;;5012318;28;20640;-79
2022/06/28 13:06:25;;;;;;;3.30;1.60;;;28.60;45.00;;;;;;5012200;28;20260;-79